createdAt,value
2023-08-19T00:00:12.632Z,11.10
2023-08-19T00:01:13.549Z,10.30
2023-08-19T00:02:12.714Z,11.70
2023-08-19T00:03:13.372Z,12.60
2023-08-19T00:04:12.587Z,11.20
2023-08-19T00:05:13.589Z,11.90
2023-08-19T00:06:12.702Z,11.70
2023-08-19T00:07:12.515Z,10.60
2023-08-19T00:08:13.365Z,11.70
2023-08-19T00:09:12.514Z,11.80
2023-08-19T00:10:12.672Z,11.00
2023-08-19T00:11:13.331Z,10.90
2023-08-19T00:12:13.247Z,11.20
2023-08-19T00:13:12.434Z,10.20
2023-08-19T00:14:12.459Z,11.60
2023-08-19T00:15:14.072Z,11.00
2023-08-19T00:16:13.414Z,10.80
2023-08-19T00:17:12.469Z,10.80
2023-08-19T00:18:14.081Z,10.90
2023-08-19T00:19:13.340Z,11.70
2023-08-19T00:20:13.249Z,11.20
2023-08-19T00:21:12.337Z,10.80
2023-08-19T00:22:13.337Z,10.50
2023-08-19T00:23:13.262Z,11.20
2023-08-19T00:24:13.318Z,11.50
2023-08-19T00:25:13.272Z,11.10
2023-08-19T00:26:13.186Z,11.30
2023-08-19T00:27:13.075Z,11.50
2023-08-19T00:29:14.185Z,10.70
2023-08-19T00:30:13.060Z,11.10
2023-08-19T00:31:12.520Z,11.40
2023-08-19T00:32:12.180Z,11.80
2023-08-19T00:33:12.220Z,11.60
2023-08-19T00:34:12.921Z,12.00
2023-08-19T00:35:12.719Z,10.50
2023-08-19T00:36:12.100Z,13.60
2023-08-19T00:37:12.882Z,12.20
2023-08-19T00:38:12.089Z,13.90
2023-08-19T00:39:12.160Z,11.80
2023-08-19T00:40:12.364Z,15.80
2023-08-19T00:41:13.041Z,14.30
2023-08-19T00:42:12.940Z,16.50
2023-08-19T00:43:12.024Z,17.50
2023-08-19T00:44:12.989Z,14.50
2023-08-19T00:45:11.998Z,15.30
2023-08-19T00:46:12.804Z,16.00
2023-08-19T00:47:11.956Z,15.00
2023-08-19T00:48:12.867Z,12.60
2023-08-19T00:49:12.261Z,12.80
2023-08-19T00:50:12.340Z,13.40
2023-08-19T00:51:12.415Z,14.70
2023-08-19T00:52:12.293Z,15.70
2023-08-19T00:53:12.301Z,14.30
2023-08-19T00:54:12.211Z,12.70
2023-08-19T00:55:12.579Z,12.50
2023-08-19T00:56:12.605Z,14.60
2023-08-19T00:57:11.982Z,15.00
2023-08-19T00:58:12.013Z,14.80
2023-08-19T00:59:11.809Z,16.10
2023-08-19T01:00:12.645Z,15.50
2023-08-19T01:01:13.383Z,17.50
2023-08-19T01:02:11.776Z,21.00
2023-08-19T01:03:12.817Z,15.60
2023-08-19T01:04:12.257Z,15.40
2023-08-19T01:05:12.505Z,13.60
2023-08-19T01:06:12.693Z,16.60
2023-08-19T01:07:12.703Z,13.60
2023-08-19T01:08:12.724Z,15.40
2023-08-19T01:09:11.892Z,15.40
2023-08-19T01:10:12.564Z,13.60
2023-08-19T01:11:12.456Z,14.20
2023-08-19T01:12:12.600Z,13.80
2023-08-19T01:13:12.506Z,14.40
2023-08-19T01:14:12.419Z,14.40
2023-08-19T01:15:11.574Z,14.60
2023-08-19T01:16:11.623Z,13.10
2023-08-19T01:17:12.641Z,14.80
2023-08-19T01:18:11.841Z,14.40
2023-08-19T01:19:12.474Z,14.50
2023-08-19T01:20:11.906Z,15.30
2023-08-19T01:21:12.539Z,13.30
2023-08-19T01:22:12.665Z,12.90
2023-08-19T01:23:11.634Z,14.30
2023-08-19T01:24:11.467Z,12.60
2023-08-19T01:25:12.442Z,13.70
2023-08-19T01:26:11.398Z,13.00
2023-08-19T01:27:12.185Z,12.70
2023-08-19T01:28:12.341Z,12.70
2023-08-19T01:29:12.259Z,13.60
2023-08-19T01:30:11.361Z,13.70
2023-08-19T01:31:11.381Z,13.60
2023-08-19T01:32:11.353Z,13.00
2023-08-19T01:33:12.225Z,12.40
2023-08-19T01:34:11.740Z,13.90
2023-08-19T01:35:11.558Z,12.90
2023-08-19T01:36:12.294Z,12.80
2023-08-19T01:37:11.727Z,12.60
2023-08-19T01:38:11.394Z,13.00
2023-08-19T01:39:12.101Z,12.60
2023-08-19T01:40:11.239Z,13.10
2023-08-19T01:41:11.217Z,12.30
2023-08-19T01:42:11.197Z,12.80
2023-08-19T01:43:12.207Z,14.70
2023-08-19T01:44:11.189Z,12.70
2023-08-19T01:45:12.000Z,13.80
2023-08-19T01:46:11.221Z,13.60
2023-08-19T01:47:12.066Z,13.50
2023-08-19T01:48:11.179Z,13.90
2023-08-19T01:49:12.121Z,13.50
2023-08-19T01:50:12.022Z,14.30
2023-08-19T01:51:11.960Z,14.10
2023-08-19T01:52:11.101Z,13.20
2023-08-19T01:53:11.315Z,13.40
2023-08-19T01:54:11.137Z,13.40
2023-08-19T01:55:11.819Z,13.30
2023-08-19T01:56:11.319Z,13.50
2023-08-19T01:57:12.054Z,12.60
2023-08-19T01:58:10.992Z,13.70
2023-08-19T01:59:11.019Z,13.40
2023-08-19T02:00:12.130Z,15.00
2023-08-19T02:01:11.803Z,13.50
2023-08-19T02:02:11.892Z,12.70
2023-08-19T02:03:11.187Z,16.00
2023-08-19T02:04:10.933Z,14.60
2023-08-19T02:05:11.030Z,14.50
2023-08-19T02:06:10.839Z,14.20
2023-08-19T02:07:10.950Z,14.30
2023-08-19T02:08:11.030Z,13.30
2023-08-19T02:09:10.903Z,14.30
2023-08-19T02:10:11.073Z,13.80
2023-08-19T02:11:11.273Z,14.20
2023-08-19T02:12:11.722Z,14.10
2023-08-19T02:13:11.623Z,14.00
2023-08-19T02:14:11.529Z,12.90
2023-08-19T02:15:11.718Z,13.30
2023-08-19T02:16:11.592Z,13.30
2023-08-19T02:17:11.029Z,12.40
2023-08-19T02:18:11.649Z,13.00
2023-08-19T02:19:10.689Z,14.00
2023-08-19T02:20:10.704Z,12.90
2023-08-19T02:21:11.366Z,12.50
2023-08-19T02:22:12.027Z,14.80
2023-08-19T02:23:10.643Z,14.10
2023-08-19T02:24:10.786Z,12.40
2023-08-19T02:25:10.723Z,12.80
2023-08-19T02:26:10.773Z,13.60
2023-08-19T02:27:10.628Z,12.80
2023-08-19T02:28:10.712Z,11.40
2023-08-19T02:29:10.540Z,13.60
2023-08-19T02:30:10.629Z,13.80
2023-08-19T02:31:11.454Z,12.30
2023-08-19T02:32:10.723Z,13.00
2023-08-19T02:33:10.523Z,14.10
2023-08-19T02:34:10.511Z,14.60
2023-08-19T02:35:11.293Z,11.80
2023-08-19T02:36:11.449Z,11.50
2023-08-19T02:37:10.424Z,12.80
2023-08-19T02:38:10.467Z,11.60
2023-08-19T02:39:10.383Z,12.30
2023-08-19T02:40:10.378Z,12.80
2023-08-19T02:41:10.390Z,13.30
2023-08-19T02:42:11.125Z,12.80
2023-08-19T02:43:10.605Z,11.20
2023-08-19T02:44:11.202Z,11.00
2023-08-19T02:45:14.738Z,10.70
2023-08-19T02:46:10.363Z,11.10
2023-08-19T02:47:12.483Z,10.70
2023-08-19T02:48:10.354Z,11.20
2023-08-19T02:49:10.249Z,10.50
2023-08-19T02:50:11.167Z,11.00
2023-08-19T02:51:11.042Z,11.40
2023-08-19T02:52:11.205Z,11.70
2023-08-19T02:53:11.346Z,11.40
2023-08-19T02:54:20.660Z,10.60
2023-08-19T02:55:10.173Z,11.70
2023-08-19T02:56:11.060Z,11.30
2023-08-19T02:57:10.139Z,11.50
2023-08-19T02:58:14.495Z,12.00
2023-08-19T02:59:10.268Z,11.20
2023-08-19T03:00:10.370Z,11.30
2023-08-19T03:01:10.129Z,11.80
2023-08-19T03:02:18.920Z,11.20
2023-08-19T03:03:13.668Z,11.70
2023-08-19T03:04:10.037Z,11.40
2023-08-19T03:05:10.016Z,13.00
2023-08-19T03:06:10.716Z,11.20
2023-08-19T03:07:10.792Z,11.80
2023-08-19T03:08:10.186Z,12.00
2023-08-19T03:09:10.556Z,12.00
2023-08-19T03:10:10.212Z,11.70
2023-08-19T03:11:10.511Z,10.80
2023-08-19T03:12:10.153Z,11.10
2023-08-19T03:13:10.644Z,11.80
2023-08-19T03:14:10.298Z,12.80
2023-08-19T03:15:09.883Z,11.70
2023-08-19T03:16:10.614Z,11.30
2023-08-19T03:17:10.559Z,11.90
2023-08-19T03:18:10.066Z,12.20
2023-08-19T03:19:10.651Z,14.00
2023-08-19T03:20:10.077Z,15.00
2023-08-19T03:21:09.876Z,13.30
2023-08-19T03:22:09.937Z,12.60
2023-08-19T03:23:09.793Z,12.70
2023-08-19T03:24:09.794Z,12.70
2023-08-19T03:25:09.989Z,13.70
2023-08-19T03:26:09.719Z,13.50
2023-08-19T03:27:09.703Z,14.60
2023-08-19T03:28:09.713Z,13.60
2023-08-19T03:29:09.688Z,16.40
2023-08-19T03:30:10.300Z,13.10
2023-08-19T03:31:10.373Z,14.60
2023-08-19T03:32:10.414Z,14.20
2023-08-19T03:33:10.715Z,13.30
2023-08-19T03:34:10.386Z,16.00
2023-08-19T03:35:10.345Z,14.00
2023-08-19T03:36:10.561Z,14.40
2023-08-19T03:37:09.580Z,14.00
2023-08-19T03:38:09.558Z,14.40
2023-08-19T03:39:09.543Z,14.30
2023-08-19T03:40:10.432Z,15.00
2023-08-19T03:41:09.553Z,13.60
2023-08-19T03:42:09.551Z,13.80
2023-08-19T03:43:10.450Z,16.40
2023-08-19T03:44:10.304Z,14.00
2023-08-19T03:45:10.458Z,13.40
2023-08-19T03:46:10.391Z,15.20
2023-08-19T03:47:14.911Z,13.70
2023-08-19T03:48:10.467Z,14.00
2023-08-19T03:49:10.340Z,13.70
2023-08-19T03:50:10.235Z,13.40
2023-08-19T03:51:10.391Z,14.10
2023-08-19T03:52:09.403Z,13.70
2023-08-19T03:53:09.368Z,14.20
2023-08-19T03:54:09.379Z,15.10
2023-08-19T03:55:10.171Z,14.60
2023-08-19T03:56:09.768Z,14.80
2023-08-19T03:57:10.078Z,14.30
2023-08-19T03:58:09.308Z,15.30
2023-08-19T03:59:10.145Z,14.70
2023-08-19T04:00:13.880Z,15.10
2023-08-19T04:01:11.649Z,13.80
2023-08-19T04:02:10.154Z,14.70
2023-08-19T04:03:10.049Z,13.50
2023-08-19T04:04:14.790Z,14.90
2023-08-19T04:05:13.535Z,15.10
2023-08-19T04:06:13.648Z,15.10
2023-08-19T04:07:13.002Z,15.20
2023-08-19T04:08:11.367Z,14.90
2023-08-19T04:10:40.095Z,13.90
2023-08-19T04:11:38.946Z,13.90
2023-08-19T04:12:39.134Z,13.90
2023-08-19T04:13:39.556Z,14.10
2023-08-19T04:14:53.283Z,14.10
2023-08-19T04:16:01.991Z,14.70
2023-08-19T04:16:38.086Z,14.50
2023-08-19T04:17:52.805Z,15.30
2023-08-19T04:18:39.092Z,15.40
2023-08-19T04:19:41.155Z,17.20
2023-08-19T04:20:45.509Z,15.70
2023-08-19T04:21:47.327Z,15.60
2023-08-19T04:22:45.029Z,16.00
2023-08-19T04:23:43.535Z,18.30
2023-08-19T04:24:40.812Z,16.00
2023-08-19T04:25:38.922Z,15.60
2023-08-19T04:26:55.020Z,15.30
2023-08-19T04:27:42.496Z,16.80
2023-08-19T04:28:47.754Z,14.60
2023-08-19T04:29:43.151Z,15.40
2023-08-19T04:30:49.438Z,15.30
2023-08-19T04:32:20.769Z,14.70
2023-08-19T04:33:04.617Z,14.70
2023-08-19T04:33:39.957Z,13.80
2023-08-19T04:34:40.113Z,15.10
2023-08-19T04:35:38.700Z,15.00
2023-08-19T04:36:49.685Z,14.00
2023-08-19T04:37:59.546Z,13.90
2023-08-19T04:39:12.680Z,15.40
2023-08-19T04:40:02.104Z,14.80
2023-08-19T04:40:59.556Z,13.90
2023-08-19T04:41:54.525Z,15.20
2023-08-19T04:42:43.437Z,16.20
2023-08-19T04:43:44.882Z,14.50
2023-08-19T04:44:37.681Z,14.50
2023-08-19T04:45:37.684Z,13.80
2023-08-19T04:47:07.372Z,14.60
2023-08-19T04:47:42.176Z,13.80
2023-08-19T04:51:30.526Z,12.70
2023-08-19T04:52:19.623Z,12.30
2023-08-19T04:53:25.728Z,11.60
2023-08-19T04:54:18.130Z,12.90
2023-08-19T04:55:16.500Z,11.10
2023-08-19T04:56:16.632Z,13.80
2023-08-19T04:57:20.319Z,11.10
2023-08-19T04:58:20.705Z,12.90
2023-08-19T04:59:37.953Z,12.20
2023-08-19T05:00:19.723Z,13.40
2023-08-19T05:01:26.090Z,12.40
2023-08-19T05:02:20.731Z,12.30
2023-08-19T05:03:32.006Z,12.10
2023-08-19T05:04:23.649Z,12.50
2023-08-19T05:05:22.322Z,12.30
2023-08-19T05:06:15.798Z,12.20
2023-08-19T05:07:12.876Z,11.00
2023-08-19T05:08:11.191Z,11.10
2023-08-19T05:09:10.396Z,10.90
2023-08-19T05:10:10.421Z,10.50
2023-08-19T05:11:10.361Z,11.20
2023-08-19T05:12:10.381Z,11.40
2023-08-19T05:13:10.333Z,10.90
2023-08-19T05:14:10.477Z,11.80
2023-08-19T05:15:10.334Z,10.00
2023-08-19T05:16:13.432Z,9.20
2023-08-19T05:17:10.273Z,10.90
2023-08-19T05:18:10.373Z,10.40
2023-08-19T05:19:10.274Z,9.70
2023-08-19T05:20:11.066Z,10.40
2023-08-19T05:21:10.275Z,10.80
2023-08-19T05:22:11.196Z,9.10
2023-08-19T05:23:10.196Z,9.90
2023-08-19T05:24:10.166Z,10.70
2023-08-19T05:25:10.199Z,10.20
2023-08-19T05:26:11.010Z,10.20
2023-08-19T05:27:10.163Z,8.60
2023-08-19T05:28:10.175Z,10.20
2023-08-19T05:29:10.177Z,9.60
2023-08-19T05:30:10.196Z,9.60
2023-08-19T05:31:10.099Z,10.90
2023-08-19T05:32:10.225Z,10.50
2023-08-19T05:33:10.863Z,9.00
2023-08-19T05:34:10.098Z,9.40
2023-08-19T05:35:10.919Z,9.90
2023-08-19T05:36:10.044Z,10.00
2023-08-19T05:37:10.140Z,9.70
2023-08-19T05:38:09.969Z,9.50
2023-08-19T05:39:11.092Z,9.80
2023-08-19T05:40:10.938Z,10.00
2023-08-19T05:41:10.001Z,9.40
2023-08-19T05:42:10.780Z,9.20
2023-08-19T05:43:09.908Z,9.10
2023-08-19T05:44:09.928Z,8.30
2023-08-19T05:45:10.410Z,9.40
2023-08-19T05:46:10.415Z,9.50
2023-08-19T05:47:10.840Z,8.60
2023-08-19T05:48:10.750Z,8.00
2023-08-19T05:49:10.665Z,8.70
2023-08-19T05:50:09.947Z,8.50
2023-08-19T05:51:09.891Z,8.80
2023-08-19T05:52:09.960Z,8.20
2023-08-19T05:53:09.811Z,8.70
2023-08-19T05:54:09.728Z,9.20
2023-08-19T05:55:09.816Z,9.00
2023-08-19T05:56:10.690Z,9.40
2023-08-19T05:57:10.136Z,9.80
2023-08-19T05:58:10.513Z,9.80
2023-08-19T05:59:09.710Z,8.90
2023-08-19T06:00:10.578Z,9.40
2023-08-19T06:01:10.513Z,9.90
2023-08-19T06:02:10.642Z,10.70
2023-08-19T06:03:10.619Z,7.80
2023-08-19T06:04:10.432Z,8.00
2023-08-19T06:05:09.611Z,8.40
2023-08-19T06:06:09.657Z,8.70
2023-08-19T06:07:09.645Z,8.80
2023-08-19T06:08:10.578Z,8.10
2023-08-19T06:09:09.571Z,8.10
2023-08-19T06:10:09.951Z,7.80
2023-08-19T06:11:09.559Z,8.30
2023-08-19T06:12:09.547Z,8.80
2023-08-19T06:13:09.508Z,8.90
2023-08-19T06:14:09.468Z,8.10
2023-08-19T06:15:10.406Z,11.40
2023-08-19T06:16:09.482Z,8.90
2023-08-19T06:17:10.244Z,8.20
2023-08-19T06:18:10.469Z,8.80
2023-08-19T06:19:12.193Z,9.10
2023-08-19T06:20:09.421Z,8.70
2023-08-19T06:21:09.450Z,9.40
2023-08-19T06:22:09.400Z,9.00
2023-08-19T06:23:09.321Z,9.40
2023-08-19T06:24:09.503Z,8.80
2023-08-19T06:25:09.451Z,8.40
2023-08-19T06:26:09.283Z,8.30
2023-08-19T06:27:10.278Z,10.00
2023-08-19T06:28:09.300Z,8.80
2023-08-19T06:29:09.330Z,9.20
2023-08-19T06:30:09.408Z,9.40
2023-08-19T06:31:10.145Z,9.90
2023-08-19T06:32:09.390Z,8.70
2023-08-19T06:33:10.019Z,8.90
2023-08-19T06:34:10.143Z,9.00
2023-08-19T06:35:09.270Z,9.50
2023-08-19T06:36:09.341Z,9.10
2023-08-19T06:37:10.085Z,9.30
2023-08-19T06:38:09.351Z,10.10
2023-08-19T06:39:09.928Z,9.50
2023-08-19T06:40:10.094Z,9.50
2023-08-19T06:41:09.977Z,9.20
2023-08-19T06:42:09.910Z,9.10
2023-08-19T06:43:09.416Z,9.30
2023-08-19T06:44:09.948Z,9.50
2023-08-19T06:45:09.835Z,10.30
2023-08-19T06:46:10.031Z,10.00
2023-08-19T06:47:09.888Z,9.90
2023-08-19T06:48:09.877Z,10.00
2023-08-19T06:49:10.006Z,9.30
2023-08-19T06:50:09.884Z,11.40
2023-08-19T06:51:09.753Z,10.00
2023-08-19T06:52:09.253Z,9.80
2023-08-19T06:53:08.939Z,10.40
2023-08-19T06:54:09.133Z,9.20
2023-08-19T06:55:09.172Z,10.10
2023-08-19T06:56:09.796Z,9.50
2023-08-19T06:57:09.695Z,10.40
2023-08-19T06:58:09.158Z,11.30
2023-08-19T06:59:09.893Z,9.90
2023-08-19T07:00:08.830Z,9.70
2023-08-19T07:01:08.884Z,10.90
2023-08-19T07:02:09.730Z,11.70
2023-08-19T07:03:09.692Z,10.10
2023-08-19T07:04:09.390Z,10.60
2023-08-19T07:05:09.708Z,9.40
2023-08-19T07:06:09.604Z,9.40
2023-08-19T07:07:09.538Z,9.60
2023-08-19T07:08:09.666Z,9.80
2023-08-19T07:09:09.592Z,10.10
2023-08-19T07:10:09.306Z,9.40
2023-08-19T07:11:09.643Z,11.00
2023-08-19T07:12:08.667Z,9.90
2023-08-19T07:13:09.454Z,9.60
2023-08-19T07:14:09.598Z,9.80
2023-08-19T07:15:09.530Z,9.60
2023-08-19T07:16:09.411Z,9.50
2023-08-19T07:17:09.557Z,9.50
2023-08-19T07:18:09.550Z,9.00
2023-08-19T07:19:09.394Z,9.90
2023-08-19T07:20:09.536Z,9.70
2023-08-19T07:21:08.510Z,9.00
2023-08-19T07:22:08.659Z,10.50
2023-08-19T07:23:08.536Z,9.40
2023-08-19T07:24:09.410Z,9.40
2023-08-19T07:25:09.306Z,9.40
2023-08-19T07:26:09.206Z,10.90
2023-08-19T07:27:09.370Z,8.80
2023-08-19T07:28:08.398Z,9.40
2023-08-19T07:29:09.181Z,9.20
2023-08-19T07:30:09.343Z,8.50
2023-08-19T07:31:08.425Z,11.70
2023-08-19T07:32:09.149Z,9.10
2023-08-19T07:33:08.356Z,9.30
2023-08-19T07:34:08.330Z,9.50
2023-08-19T07:35:09.136Z,9.00
2023-08-19T07:36:09.270Z,8.90
2023-08-19T07:37:11.246Z,8.30
2023-08-19T07:38:08.323Z,10.20
2023-08-19T07:39:09.238Z,8.20
2023-08-19T07:40:09.146Z,9.60
2023-08-19T07:41:09.111Z,9.10
2023-08-19T07:42:09.215Z,9.50
2023-08-19T07:43:08.225Z,9.90
2023-08-19T07:44:09.022Z,9.60
2023-08-19T07:45:08.306Z,9.10
2023-08-19T07:46:08.288Z,9.70
2023-08-19T07:47:08.990Z,8.60
2023-08-19T07:48:08.201Z,9.10
2023-08-19T07:49:08.359Z,8.60
2023-08-19T07:50:08.979Z,8.90
2023-08-19T07:51:08.860Z,8.90
2023-08-19T07:52:09.062Z,8.80
2023-08-19T07:53:08.926Z,10.30
2023-08-19T07:54:09.090Z,9.00
2023-08-19T07:55:08.163Z,8.20
2023-08-19T07:56:08.077Z,8.60
2023-08-19T07:57:08.038Z,7.80
2023-08-19T07:58:08.957Z,8.50
2023-08-19T07:59:08.037Z,8.50
2023-08-19T08:00:08.037Z,8.40
2023-08-19T08:01:08.015Z,8.20
2023-08-19T08:02:07.974Z,8.90
2023-08-19T08:03:08.756Z,9.00
2023-08-19T08:04:08.933Z,8.40
2023-08-19T08:05:08.942Z,8.80
2023-08-19T08:06:08.705Z,8.50
2023-08-19T08:07:07.922Z,8.90
2023-08-19T08:08:08.777Z,8.60
2023-08-19T08:09:07.866Z,9.00
2023-08-19T08:10:07.941Z,8.40
2023-08-19T08:11:07.870Z,8.30
2023-08-19T08:12:07.825Z,8.60
2023-08-19T08:13:08.792Z,8.30
2023-08-19T08:14:07.784Z,8.20
2023-08-19T08:15:07.809Z,7.90
2023-08-19T08:16:08.845Z,8.40
2023-08-19T08:17:08.677Z,8.70
2023-08-19T08:18:08.617Z,7.80
2023-08-19T08:19:07.785Z,7.80
2023-08-19T08:20:07.738Z,8.00
2023-08-19T08:21:07.703Z,8.60
2023-08-19T08:22:07.763Z,8.40
2023-08-19T08:23:07.810Z,8.00
2023-08-19T08:24:07.666Z,8.10
2023-08-19T08:25:07.792Z,8.20
2023-08-19T08:26:07.632Z,7.60
2023-08-19T08:27:07.625Z,8.30
2023-08-19T08:28:07.649Z,7.90
2023-08-19T08:29:07.609Z,7.80
2023-08-19T08:30:08.445Z,8.50
2023-08-19T08:31:07.557Z,7.50
2023-08-19T08:32:08.535Z,7.00
2023-08-19T08:33:07.590Z,7.60
2023-08-19T08:34:08.322Z,6.90
2023-08-19T08:35:08.493Z,8.20
2023-08-19T08:36:07.515Z,7.90
2023-08-19T08:37:08.294Z,8.20
2023-08-19T08:38:08.705Z,7.10
2023-08-19T08:39:07.514Z,7.30
2023-08-19T08:40:08.283Z,7.40
2023-08-19T08:41:08.412Z,7.60
2023-08-19T08:42:08.325Z,7.00
2023-08-19T08:43:08.254Z,7.50
2023-08-19T08:44:08.385Z,8.80
2023-08-19T08:45:08.284Z,7.10
2023-08-19T08:46:07.589Z,8.30
2023-08-19T08:47:08.343Z,8.00
2023-08-19T08:48:07.431Z,8.30
2023-08-19T08:49:07.311Z,8.60
2023-08-19T08:50:08.346Z,8.00
2023-08-19T08:51:07.308Z,7.40
2023-08-19T08:52:08.170Z,7.60
2023-08-19T08:53:07.318Z,7.20
2023-08-19T08:54:07.322Z,10.40
2023-08-19T08:55:07.319Z,7.50
2023-08-19T08:56:07.330Z,8.00
2023-08-19T08:57:07.201Z,7.30
2023-08-19T08:58:07.325Z,7.90
2023-08-19T08:59:07.311Z,7.80
2023-08-19T09:00:07.236Z,8.10
2023-08-19T09:01:07.229Z,7.90
2023-08-19T09:02:07.194Z,7.90
2023-08-19T09:03:07.131Z,9.20
2023-08-19T09:04:07.129Z,7.50
2023-08-19T09:05:07.229Z,7.30
2023-08-19T09:06:07.116Z,7.60
2023-08-19T09:07:07.078Z,7.00
2023-08-19T09:08:07.072Z,7.30
2023-08-19T09:09:07.069Z,9.70
2023-08-19T09:10:07.059Z,7.10
2023-08-19T09:11:07.031Z,7.00
2023-08-19T09:12:07.072Z,7.40
2023-08-19T09:13:06.994Z,8.50
2023-08-19T09:14:06.987Z,7.70
2023-08-19T09:15:07.985Z,9.40
2023-08-19T09:16:07.913Z,7.80
2023-08-19T09:17:06.947Z,8.90
2023-08-19T09:18:07.037Z,8.20
2023-08-19T09:19:07.838Z,8.40
2023-08-19T09:20:06.952Z,7.90
2023-08-19T09:21:06.900Z,7.60
2023-08-19T09:22:06.886Z,8.10
2023-08-19T09:23:08.714Z,8.40
2023-08-19T09:24:06.891Z,8.30
2023-08-19T09:25:07.775Z,8.10
2023-08-19T09:26:06.855Z,7.80
2023-08-19T09:27:06.826Z,8.50
2023-08-19T09:28:06.866Z,8.40
2023-08-19T09:29:06.804Z,9.90
2023-08-19T09:30:07.329Z,9.40
2023-08-19T09:31:06.825Z,9.10
2023-08-19T09:32:07.617Z,9.20
2023-08-19T09:33:06.813Z,8.20
2023-08-19T09:34:07.694Z,8.90
2023-08-19T09:35:06.763Z,9.00
2023-08-19T09:36:06.719Z,8.20
2023-08-19T09:37:06.688Z,8.80
2023-08-19T09:38:07.554Z,9.40
2023-08-19T09:39:07.465Z,9.10
2023-08-19T09:40:07.616Z,9.10
2023-08-19T09:41:06.684Z,8.30
2023-08-19T09:42:06.617Z,8.40
2023-08-19T09:43:07.592Z,9.30
2023-08-19T09:44:06.643Z,8.10
2023-08-19T09:45:06.639Z,8.50
2023-08-19T09:46:07.556Z,8.80
2023-08-19T09:47:06.643Z,8.20
2023-08-19T09:48:07.473Z,7.80
2023-08-19T09:49:06.555Z,8.40
2023-08-19T09:50:07.435Z,8.80
2023-08-19T09:51:06.545Z,8.80
2023-08-19T09:52:07.483Z,9.00
2023-08-19T09:53:07.390Z,8.80
2023-08-19T09:54:07.288Z,8.30
2023-08-19T09:55:07.461Z,8.60
2023-08-19T09:56:06.449Z,9.70
2023-08-19T09:57:07.260Z,8.70
2023-08-19T09:58:06.394Z,8.20
2023-08-19T09:59:07.332Z,8.10
2023-08-19T10:00:07.263Z,9.00
2023-08-19T10:01:07.207Z,9.40
2023-08-19T10:02:07.198Z,8.00
2023-08-19T10:03:07.336Z,8.70
2023-08-19T10:04:07.190Z,8.40
2023-08-19T10:05:07.258Z,10.60
2023-08-19T10:06:06.312Z,7.80
2023-08-19T10:07:07.069Z,8.50
2023-08-19T10:08:06.350Z,8.80
2023-08-19T10:09:06.296Z,9.40
2023-08-19T10:10:06.290Z,8.90
2023-08-19T10:11:06.251Z,10.30
2023-08-19T10:12:07.103Z,8.90
2023-08-19T10:13:07.005Z,8.40
2023-08-19T10:14:07.185Z,8.10
2023-08-19T10:15:06.242Z,8.70
2023-08-19T10:16:06.184Z,9.10
2023-08-19T10:17:06.204Z,9.40
2023-08-19T10:18:06.223Z,8.60
2023-08-19T10:19:06.165Z,8.60
2023-08-19T10:20:06.149Z,8.90
2023-08-19T10:21:06.232Z,8.60
2023-08-19T10:22:07.462Z,8.70
2023-08-19T10:23:06.116Z,9.10
2023-08-19T10:24:06.100Z,8.30
2023-08-19T10:25:06.872Z,8.70
2023-08-19T10:26:06.122Z,9.10
2023-08-19T10:27:06.064Z,8.90
2023-08-19T10:28:06.849Z,8.60
2023-08-19T10:29:07.022Z,7.90
2023-08-19T10:30:06.047Z,8.70
2023-08-19T10:31:06.853Z,9.00
2023-08-19T10:32:06.717Z,8.30
2023-08-19T10:33:06.930Z,8.70
2023-08-19T10:34:06.818Z,8.60
2023-08-19T10:35:08.477Z,9.90
2023-08-19T10:36:06.933Z,8.10
2023-08-19T10:37:06.759Z,8.30
2023-08-19T10:38:06.653Z,8.10
2023-08-19T10:39:06.814Z,8.20
2023-08-19T10:40:06.723Z,8.20
2023-08-19T10:41:05.877Z,8.20
2023-08-19T10:42:05.881Z,9.20
2023-08-19T10:43:06.705Z,8.80
2023-08-19T10:44:05.857Z,8.00
2023-08-19T10:45:06.759Z,8.00
2023-08-19T10:46:05.884Z,7.80
2023-08-19T10:47:05.780Z,8.00
2023-08-19T10:48:05.850Z,8.60
2023-08-19T10:49:06.643Z,9.10
2023-08-19T10:50:06.526Z,8.10
2023-08-19T10:51:05.792Z,8.10
2023-08-19T10:52:07.146Z,8.00
2023-08-19T10:53:06.490Z,7.00
2023-08-19T10:54:06.661Z,7.70
2023-08-19T10:55:06.559Z,7.90
2023-08-19T10:56:06.486Z,7.10
2023-08-19T10:57:05.696Z,7.90
2023-08-19T10:58:06.525Z,7.90
2023-08-19T10:59:05.699Z,7.70
2023-08-19T11:00:06.613Z,8.20
2023-08-19T11:01:05.597Z,8.20
2023-08-19T11:02:05.696Z,7.90
2023-08-19T11:03:05.657Z,8.20
2023-08-19T11:04:06.510Z,8.80
2023-08-19T11:05:06.398Z,7.30
2023-08-19T11:06:06.529Z,6.90
2023-08-19T11:07:06.466Z,7.60
2023-08-19T11:08:06.354Z,8.70
2023-08-19T11:09:12.245Z,8.30
2023-08-19T11:10:05.716Z,7.50
2023-08-19T11:11:06.305Z,7.20
2023-08-19T11:12:06.543Z,11.10
2023-08-19T11:13:06.369Z,7.80
2023-08-19T11:14:06.268Z,7.30
2023-08-19T11:15:05.525Z,7.90
2023-08-19T11:16:05.563Z,7.50
2023-08-19T11:17:05.462Z,8.50
2023-08-19T11:18:06.493Z,9.30
2023-08-19T11:19:05.672Z,9.40
2023-08-19T11:20:06.208Z,8.10
2023-08-19T11:21:05.424Z,7.80
2023-08-19T11:22:06.277Z,7.70
2023-08-19T11:23:05.372Z,7.70
2023-08-19T11:24:05.400Z,7.80
2023-08-19T11:25:06.256Z,7.50
2023-08-19T11:26:06.154Z,7.30
2023-08-19T11:27:05.309Z,7.40
2023-08-19T11:28:06.268Z,7.60
2023-08-19T11:29:05.332Z,8.00
2023-08-19T11:30:06.028Z,7.60
2023-08-19T11:31:05.309Z,7.50
2023-08-19T11:32:05.316Z,7.40
2023-08-19T11:33:05.318Z,10.60
2023-08-19T11:34:05.327Z,7.30
2023-08-19T11:35:06.061Z,6.80
2023-08-19T11:36:05.216Z,7.70
2023-08-19T11:37:05.213Z,7.80
2023-08-19T11:38:05.322Z,7.90
2023-08-19T11:39:05.199Z,8.00
2023-08-19T11:40:14.750Z,7.80
2023-08-19T11:41:07.021Z,7.50
2023-08-19T11:42:05.165Z,7.50
2023-08-19T11:43:05.191Z,8.40
2023-08-19T11:44:05.129Z,9.40
2023-08-19T11:45:05.855Z,7.90
2023-08-19T11:46:05.200Z,7.70
2023-08-19T11:47:05.921Z,7.90
2023-08-19T11:48:05.160Z,9.00
2023-08-19T11:49:05.077Z,7.70
2023-08-19T11:50:05.025Z,8.10
2023-08-19T11:51:05.043Z,8.80
2023-08-19T11:52:05.955Z,7.60
2023-08-19T11:53:05.040Z,7.30
2023-08-19T11:54:05.771Z,7.10
2023-08-19T11:55:05.015Z,7.70
2023-08-19T11:56:05.841Z,9.60
2023-08-19T11:57:05.742Z,7.70
2023-08-19T11:58:04.965Z,7.50
2023-08-19T11:59:05.822Z,7.40
2023-08-19T12:00:04.931Z,7.50
2023-08-19T12:01:05.034Z,7.90
2023-08-19T12:02:05.814Z,8.30
2023-08-19T12:03:05.697Z,7.60
2023-08-19T12:04:05.872Z,8.00
2023-08-19T12:05:04.869Z,7.80
2023-08-19T12:06:04.902Z,7.90
2023-08-19T12:07:04.887Z,7.50
2023-08-19T12:08:05.702Z,10.00
2023-08-19T12:09:04.920Z,7.60
2023-08-19T12:10:05.768Z,7.50
2023-08-19T12:11:05.677Z,7.70
2023-08-19T12:12:04.776Z,7.80
2023-08-19T12:13:04.993Z,7.80
2023-08-19T12:14:04.938Z,8.20
2023-08-19T12:15:04.975Z,7.90
2023-08-19T12:16:05.785Z,8.30
2023-08-19T12:17:05.620Z,8.20
2023-08-19T12:18:05.572Z,8.60
2023-08-19T12:19:05.669Z,8.30
2023-08-19T12:20:05.566Z,7.90
2023-08-19T12:21:04.714Z,8.50
2023-08-19T12:22:05.174Z,8.10
2023-08-19T12:23:05.544Z,11.70
2023-08-19T12:24:05.458Z,8.80
2023-08-19T12:25:04.638Z,7.80
2023-08-19T12:26:05.501Z,8.10
2023-08-19T12:27:04.602Z,8.40
2023-08-19T12:28:04.579Z,9.00
2023-08-19T12:29:05.491Z,7.90
2023-08-19T12:30:05.378Z,8.30
2023-08-19T12:31:05.298Z,7.70
2023-08-19T12:32:05.438Z,8.10
2023-08-19T12:33:05.416Z,8.20
2023-08-19T12:34:04.573Z,8.60
2023-08-19T12:35:05.427Z,8.20
2023-08-19T12:36:17.912Z,7.80
2023-08-19T12:37:05.543Z,8.20
2023-08-19T12:38:04.427Z,8.20
2023-08-19T12:39:04.452Z,8.10
2023-08-19T12:40:04.435Z,7.60
2023-08-19T12:41:05.356Z,8.50
2023-08-19T12:42:04.435Z,7.00
2023-08-19T12:43:04.505Z,8.10
2023-08-19T12:44:04.376Z,7.40
2023-08-19T12:45:04.354Z,7.60
2023-08-19T12:46:04.380Z,7.90
2023-08-19T12:47:04.397Z,8.10
2023-08-19T12:48:05.223Z,8.00
2023-08-19T12:49:04.330Z,8.00
2023-08-19T12:50:04.275Z,7.50
2023-08-19T12:51:05.157Z,8.30
2023-08-19T12:52:05.063Z,9.90
2023-08-19T12:53:04.261Z,8.10
2023-08-19T12:54:04.354Z,7.60
2023-08-19T12:55:04.349Z,8.20
2023-08-19T12:56:04.172Z,8.90
2023-08-19T12:57:04.252Z,8.60
2023-08-19T12:58:04.185Z,8.40
2023-08-19T12:59:04.166Z,8.40
2023-08-19T13:00:04.140Z,9.10
2023-08-19T13:01:04.984Z,8.10
2023-08-19T13:02:04.124Z,9.50
2023-08-19T13:03:04.143Z,11.10
2023-08-19T13:04:04.160Z,8.00
2023-08-19T13:05:04.093Z,8.40
2023-08-19T13:06:04.041Z,8.10
2023-08-19T13:07:04.055Z,7.40
2023-08-19T13:08:04.069Z,7.90
2023-08-19T13:09:04.019Z,7.80
2023-08-19T13:10:04.041Z,7.90
2023-08-19T13:11:08.420Z,7.80